sensor_id;sensor_type;location;lat;lon;timestamp;temperature;humidity
12303;DHT22;6214;48.012;7.862;2023-03-23T00:01:19;17.30;99.90
12303;DHT22;6214;48.012;7.862;2023-03-23T00:03:47;17.20;99.90
12303;DHT22;6214;48.012;7.862;2023-03-23T00:06:13;17.30;99.90
12303;DHT22;6214;48.012;7.862;2023-03-23T00:08:48;17.30;99.90
12303;DHT22;6214;48.012;7.862;2023-03-23T00:11:20;17.40;99.90
12303;DHT22;6214;48.012;7.862;2023-03-23T00:13:50;17.40;99.90
12303;DHT22;6214;48.012;7.862;2023-03-23T00:16:21;17.40;99.90
12303;DHT22;6214;48.012;7.862;2023-03-23T00:19:01;17.40;99.90
12303;DHT22;6214;48.012;7.862;2023-03-23T00:21:35;17.40;99.90
12303;DHT22;6214;48.012;7.862;2023-03-23T00:24:03;17.40;99.90
12303;DHT22;6214;48.012;7.862;2023-03-23T00:26:30;17.30;99.90
12303;DHT22;6214;48.012;7.862;2023-03-23T00:29:03;17.30;99.90
12303;DHT22;6214;48.012;7.862;2023-03-23T00:31:30;17.30;99.90
12303;DHT22;6214;48.012;7.862;2023-03-23T00:33:59;17.20;99.90
12303;DHT22;6214;48.012;7.862;2023-03-23T00:36:27;17.20;99.90
12303;DHT22;6214;48.012;7.862;2023-03-23T00:38:54;17.10;99.90
12303;DHT22;6214;48.012;7.862;2023-03-23T00:41:24;17.20;99.90
12303;DHT22;6214;48.012;7.862;2023-03-23T00:43:54;17.20;99.90
12303;DHT22;6214;48.012;7.862;2023-03-23T00:46:20;17.20;99.90
12303;DHT22;6214;48.012;7.862;2023-03-23T00:48:46;17.20;99.90
12303;DHT22;6214;48.012;7.862;2023-03-23T00:51:12;17.20;99.90
12303;DHT22;6214;48.012;7.862;2023-03-23T00:53:39;17.20;99.90
12303;DHT22;6214;48.012;7.862;2023-03-23T00:56:07;17.30;99.90
12303;DHT22;6214;48.012;7.862;2023-03-23T00:58:33;17.30;99.90
12303;DHT22;6214;48.012;7.862;2023-03-23T01:00:59;17.40;99.90
12303;DHT22;6214;48.012;7.862;2023-03-23T01:03:25;17.30;99.90
12303;DHT22;6214;48.012;7.862;2023-03-23T01:05:52;17.30;99.90
12303;DHT22;6214;48.012;7.862;2023-03-23T01:08:18;17.30;99.90
12303;DHT22;6214;48.012;7.862;2023-03-23T01:10:45;17.30;99.90
12303;DHT22;6214;48.012;7.862;2023-03-23T01:13:12;17.20;99.90
12303;DHT22;6214;48.012;7.862;2023-03-23T01:15:38;17.30;99.90
12303;DHT22;6214;48.012;7.862;2023-03-23T01:18:05;17.30;99.90
12303;DHT22;6214;48.012;7.862;2023-03-23T01:20:31;17.30;99.90
12303;DHT22;6214;48.012;7.862;2023-03-23T01:22:58;17.40;99.90
12303;DHT22;6214;48.012;7.862;2023-03-23T01:25:28;17.40;99.90
12303;DHT22;6214;48.012;7.862;2023-03-23T01:27:54;17.40;99.90
12303;DHT22;6214;48.012;7.862;2023-03-23T01:30:21;17.20;99.90
12303;DHT22;6214;48.012;7.862;2023-03-23T01:32:47;17.30;99.90
12303;DHT22;6214;48.012;7.862;2023-03-23T01:35:13;17.30;99.90
12303;DHT22;6214;48.012;7.862;2023-03-23T01:37:39;17.10;99.90
12303;DHT22;6214;48.012;7.862;2023-03-23T01:40:05;17.20;99.90
12303;DHT22;6214;48.012;7.862;2023-03-23T01:42:34;17.20;99.90
12303;DHT22;6214;48.012;7.862;2023-03-23T01:45:27;17.20;99.90
12303;DHT22;6214;48.012;7.862;2023-03-23T01:48:01;17.30;99.90
12303;DHT22;6214;48.012;7.862;2023-03-23T01:50:30;17.20;99.90
12303;DHT22;6214;48.012;7.862;2023-03-23T01:52:58;17.40;99.90
12303;DHT22;6214;48.012;7.862;2023-03-23T01:55:26;17.40;99.90
12303;DHT22;6214;48.012;7.862;2023-03-23T01:57:54;17.50;99.90
12303;DHT22;6214;48.012;7.862;2023-03-23T02:00:21;17.40;99.90
12303;DHT22;6214;48.012;7.862;2023-03-23T02:02:48;17.40;99.90
12303;DHT22;6214;48.012;7.862;2023-03-23T02:05:24;17.50;99.90
12303;DHT22;6214;48.012;7.862;2023-03-23T02:07:51;17.50;99.90
12303;DHT22;6214;48.012;7.862;2023-03-23T02:10:17;17.60;99.90
12303;DHT22;6214;48.012;7.862;2023-03-23T02:12:43;17.70;99.90
12303;DHT22;6214;48.012;7.862;2023-03-23T02:15:09;17.80;99.90
12303;DHT22;6214;48.012;7.862;2023-03-23T02:17:54;17.80;99.90
12303;DHT22;6214;48.012;7.862;2023-03-23T02:20:59;17.80;99.90
12303;DHT22;6214;48.012;7.862;2023-03-23T02:24:01;17.70;99.90
12303;DHT22;6214;48.012;7.862;2023-03-23T02:31:57;17.70;99.90
12303;DHT22;6214;48.012;7.862;2023-03-23T02:34:32;17.80;99.90
12303;DHT22;6214;48.012;7.862;2023-03-23T02:37:09;17.80;99.90
12303;DHT22;6214;48.012;7.862;2023-03-23T02:39:52;17.90;99.90
12303;DHT22;6214;48.012;7.862;2023-03-23T02:42:23;17.90;99.90
12303;DHT22;6214;48.012;7.862;2023-03-23T02:44:52;17.90;99.90
12303;DHT22;6214;48.012;7.862;2023-03-23T02:47:25;18.00;99.90
12303;DHT22;6214;48.012;7.862;2023-03-23T02:49:54;18.00;99.90
12303;DHT22;6214;48.012;7.862;2023-03-23T02:52:27;18.00;99.90
12303;DHT22;6214;48.012;7.862;2023-03-23T02:54:55;18.10;99.90
12303;DHT22;6214;48.012;7.862;2023-03-23T02:57:22;18.10;99.90
12303;DHT22;6214;48.012;7.862;2023-03-23T02:59:49;18.20;99.90
12303;DHT22;6214;48.012;7.862;2023-03-23T03:10:11;18.20;99.90
12303;DHT22;6214;48.012;7.862;2023-03-23T03:12:51;18.10;99.90
12303;DHT22;6214;48.012;7.862;2023-03-23T03:15:37;18.10;99.90
12303;DHT22;6214;48.012;7.862;2023-03-23T03:18:09;18.10;99.90
12303;DHT22;6214;48.012;7.862;2023-03-23T03:20:42;18.10;99.90
12303;DHT22;6214;48.012;7.862;2023-03-23T03:23:10;18.10;99.90
12303;DHT22;6214;48.012;7.862;2023-03-23T03:25:39;18.10;99.90
12303;DHT22;6214;48.012;7.862;2023-03-23T03:28:07;18.10;99.90
12303;DHT22;6214;48.012;7.862;2023-03-23T03:30:36;18.10;99.90
12303;DHT22;6214;48.012;7.862;2023-03-23T03:33:02;18.10;99.90
12303;DHT22;6214;48.012;7.862;2023-03-23T03:35:30;18.20;99.90
12303;DHT22;6214;48.012;7.862;2023-03-23T03:37:57;18.20;99.90
12303;DHT22;6214;48.012;7.862;2023-03-23T03:40:29;18.20;99.90
12303;DHT22;6214;48.012;7.862;2023-03-23T03:42:55;18.20;99.90
12303;DHT22;6214;48.012;7.862;2023-03-23T03:45:21;18.20;99.90
12303;DHT22;6214;48.012;7.862;2023-03-23T03:47:47;18.20;99.90
12303;DHT22;6214;48.012;7.862;2023-03-23T03:50:13;18.20;99.90
12303;DHT22;6214;48.012;7.862;2023-03-23T03:52:39;18.20;99.90
12303;DHT22;6214;48.012;7.862;2023-03-23T03:55:07;18.20;99.90
12303;DHT22;6214;48.012;7.862;2023-03-23T03:57:34;18.20;99.90
12303;DHT22;6214;48.012;7.862;2023-03-23T04:00:00;18.20;99.90
12303;DHT22;6214;48.012;7.862;2023-03-23T04:02:29;18.30;99.90
12303;DHT22;6214;48.012;7.862;2023-03-23T04:04:55;18.30;99.90
12303;DHT22;6214;48.012;7.862;2023-03-23T04:07:21;18.30;99.90
12303;DHT22;6214;48.012;7.862;2023-03-23T04:09:47;18.30;99.90
12303;DHT22;6214;48.012;7.862;2023-03-23T04:12:14;18.30;99.90
12303;DHT22;6214;48.012;7.862;2023-03-23T04:14:40;18.30;99.90
12303;DHT22;6214;48.012;7.862;2023-03-23T04:17:06;18.40;99.90
12303;DHT22;6214;48.012;7.862;2023-03-23T04:19:35;18.30;99.90
12303;DHT22;6214;48.012;7.862;2023-03-23T04:22:03;18.40;99.90
12303;DHT22;6214;48.012;7.862;2023-03-23T04:24:30;18.40;99.90
12303;DHT22;6214;48.012;7.862;2023-03-23T04:26:59;18.40;99.90
12303;DHT22;6214;48.012;7.862;2023-03-23T04:29:26;18.40;99.90
12303;DHT22;6214;48.012;7.862;2023-03-23T04:31:52;18.30;99.90
12303;DHT22;6214;48.012;7.862;2023-03-23T04:34:18;18.30;99.90
12303;DHT22;6214;48.012;7.862;2023-03-23T04:36:45;18.40;99.90
12303;DHT22;6214;48.012;7.862;2023-03-23T04:39:12;18.30;99.90
12303;DHT22;6214;48.012;7.862;2023-03-23T04:41:39;18.30;99.90
12303;DHT22;6214;48.012;7.862;2023-03-23T04:44:06;18.40;99.90
12303;DHT22;6214;48.012;7.862;2023-03-23T04:46:32;18.40;99.90
12303;DHT22;6214;48.012;7.862;2023-03-23T04:48:59;18.30;99.90
12303;DHT22;6214;48.012;7.862;2023-03-23T04:51:26;18.40;99.90
12303;DHT22;6214;48.012;7.862;2023-03-23T04:53:53;18.40;99.90
12303;DHT22;6214;48.012;7.862;2023-03-23T04:56:19;18.30;99.90
12303;DHT22;6214;48.012;7.862;2023-03-23T04:58:46;18.20;99.90
12303;DHT22;6214;48.012;7.862;2023-03-23T05:01:12;18.20;99.90
12303;DHT22;6214;48.012;7.862;2023-03-23T05:03:44;18.20;99.90
12303;DHT22;6214;48.012;7.862;2023-03-23T05:06:10;18.10;99.90
12303;DHT22;6214;48.012;7.862;2023-03-23T05:08:36;18.10;99.90
12303;DHT22;6214;48.012;7.862;2023-03-23T05:11:06;18.10;99.90
12303;DHT22;6214;48.012;7.862;2023-03-23T05:13:32;18.10;99.90
12303;DHT22;6214;48.012;7.862;2023-03-23T05:15:58;18.20;99.90
12303;DHT22;6214;48.012;7.862;2023-03-23T05:18:24;18.00;99.90
12303;DHT22;6214;48.012;7.862;2023-03-23T05:20:49;18.00;99.90
12303;DHT22;6214;48.012;7.862;2023-03-23T05:23:18;18.00;99.90
12303;DHT22;6214;48.012;7.862;2023-03-23T05:25:54;17.90;99.90
12303;DHT22;6214;48.012;7.862;2023-03-23T05:28:21;17.90;99.90
12303;DHT22;6214;48.012;7.862;2023-03-23T05:30:48;17.90;99.90
12303;DHT22;6214;48.012;7.862;2023-03-23T05:33:14;17.90;99.90
12303;DHT22;6214;48.012;7.862;2023-03-23T05:35:40;17.80;99.90
12303;DHT22;6214;48.012;7.862;2023-03-23T05:38:06;17.70;99.90
12303;DHT22;6214;48.012;7.862;2023-03-23T05:40:32;17.80;99.90
12303;DHT22;6214;48.012;7.862;2023-03-23T05:42:57;17.70;99.90
12303;DHT22;6214;48.012;7.862;2023-03-23T05:45:25;17.70;99.90
12303;DHT22;6214;48.012;7.862;2023-03-23T05:47:51;17.70;99.90
12303;DHT22;6214;48.012;7.862;2023-03-23T05:50:17;17.70;99.90
12303;DHT22;6214;48.012;7.862;2023-03-23T05:52:44;17.60;99.90
12303;DHT22;6214;48.012;7.862;2023-03-23T05:55:10;17.70;99.90
12303;DHT22;6214;48.012;7.862;2023-03-23T05:57:36;17.80;99.90
12303;DHT22;6214;48.012;7.862;2023-03-23T06:00:03;17.80;99.90
12303;DHT22;6214;48.012;7.862;2023-03-23T06:02:49;17.80;99.90
12303;DHT22;6214;48.012;7.862;2023-03-23T06:05:16;17.80;99.90
12303;DHT22;6214;48.012;7.862;2023-03-23T06:07:42;17.80;99.90
12303;DHT22;6214;48.012;7.862;2023-03-23T06:10:09;17.70;99.90
12303;DHT22;6214;48.012;7.862;2023-03-23T06:12:37;17.60;99.90
12303;DHT22;6214;48.012;7.862;2023-03-23T06:15:03;17.60;99.90
12303;DHT22;6214;48.012;7.862;2023-03-23T06:17:30;17.60;99.90
12303;DHT22;6214;48.012;7.862;2023-03-23T06:19:56;17.50;99.90
12303;DHT22;6214;48.012;7.862;2023-03-23T06:22:22;17.40;99.90
12303;DHT22;6214;48.012;7.862;2023-03-23T06:24:48;17.50;99.90
12303;DHT22;6214;48.012;7.862;2023-03-23T06:27:14;17.50;99.90
12303;DHT22;6214;48.012;7.862;2023-03-23T06:29:42;17.50;99.90
12303;DHT22;6214;48.012;7.862;2023-03-23T06:32:09;17.50;99.90
12303;DHT22;6214;48.012;7.862;2023-03-23T06:34:36;17.40;99.90
12303;DHT22;6214;48.012;7.862;2023-03-23T06:37:02;17.40;99.90
12303;DHT22;6214;48.012;7.862;2023-03-23T06:39:27;17.40;99.90
12303;DHT22;6214;48.012;7.862;2023-03-23T06:41:54;17.50;99.90
12303;DHT22;6214;48.012;7.862;2023-03-23T06:44:19;17.60;99.90
12303;DHT22;6214;48.012;7.862;2023-03-23T06:46:45;17.50;99.90
12303;DHT22;6214;48.012;7.862;2023-03-23T06:49:11;17.50;99.90
12303;DHT22;6214;48.012;7.862;2023-03-23T06:51:37;17.60;99.90
12303;DHT22;6214;48.012;7.862;2023-03-23T06:54:04;17.60;99.90
12303;DHT22;6214;48.012;7.862;2023-03-23T06:56:30;17.70;99.90
12303;DHT22;6214;48.012;7.862;2023-03-23T06:58:56;17.60;99.90
12303;DHT22;6214;48.012;7.862;2023-03-23T07:01:22;17.50;99.90
12303;DHT22;6214;48.012;7.862;2023-03-23T07:03:48;17.40;99.90
12303;DHT22;6214;48.012;7.862;2023-03-23T07:06:14;17.30;99.90
12303;DHT22;6214;48.012;7.862;2023-03-23T07:08:42;17.30;99.90
12303;DHT22;6214;48.012;7.862;2023-03-23T07:11:08;17.40;99.90
12303;DHT22;6214;48.012;7.862;2023-03-23T07:13:35;17.30;99.90
12303;DHT22;6214;48.012;7.862;2023-03-23T07:16:05;17.30;99.90
12303;DHT22;6214;48.012;7.862;2023-03-23T07:18:31;17.30;99.90
12303;DHT22;6214;48.012;7.862;2023-03-23T07:20:57;17.30;99.90
12303;DHT22;6214;48.012;7.862;2023-03-23T07:23:23;17.40;99.90
12303;DHT22;6214;48.012;7.862;2023-03-23T07:25:49;17.40;99.90
12303;DHT22;6214;48.012;7.862;2023-03-23T07:28:15;17.40;99.90
12303;DHT22;6214;48.012;7.862;2023-03-23T07:30:42;17.50;99.90
12303;DHT22;6214;48.012;7.862;2023-03-23T07:33:08;17.50;99.90
12303;DHT22;6214;48.012;7.862;2023-03-23T07:35:34;17.50;99.90
12303;DHT22;6214;48.012;7.862;2023-03-23T07:38:01;17.40;99.90
12303;DHT22;6214;48.012;7.862;2023-03-23T07:40:28;17.40;99.90
12303;DHT22;6214;48.012;7.862;2023-03-23T07:42:56;17.40;99.90
12303;DHT22;6214;48.012;7.862;2023-03-23T07:45:23;17.20;99.90
12303;DHT22;6214;48.012;7.862;2023-03-23T07:47:49;16.90;99.90
12303;DHT22;6214;48.012;7.862;2023-03-23T07:50:15;16.90;99.90
12303;DHT22;6214;48.012;7.862;2023-03-23T07:52:41;16.80;99.90
12303;DHT22;6214;48.012;7.862;2023-03-23T07:55:10;16.80;99.90
12303;DHT22;6214;48.012;7.862;2023-03-23T07:57:44;16.60;99.90
12303;DHT22;6214;48.012;7.862;2023-03-23T08:00:10;16.50;99.90
12303;DHT22;6214;48.012;7.862;2023-03-23T08:02:48;16.60;99.90
12303;DHT22;6214;48.012;7.862;2023-03-23T08:05:15;16.80;99.90
12303;DHT22;6214;48.012;7.862;2023-03-23T08:07:42;16.60;99.90
12303;DHT22;6214;48.012;7.862;2023-03-23T08:10:10;16.60;99.90
12303;DHT22;6214;48.012;7.862;2023-03-23T08:12:37;16.50;99.90
12303;DHT22;6214;48.012;7.862;2023-03-23T08:15:08;16.60;99.90
12303;DHT22;6214;48.012;7.862;2023-03-23T08:17:35;16.70;99.90
12303;DHT22;6214;48.012;7.862;2023-03-23T08:20:02;16.60;99.90
12303;DHT22;6214;48.012;7.862;2023-03-23T08:22:33;16.50;99.90
12303;DHT22;6214;48.012;7.862;2023-03-23T08:25:02;16.40;99.90
12303;DHT22;6214;48.012;7.862;2023-03-23T08:27:29;16.40;99.90
12303;DHT22;6214;48.012;7.862;2023-03-23T08:29:55;16.50;99.90
12303;DHT22;6214;48.012;7.862;2023-03-23T08:32:21;16.50;99.90
12303;DHT22;6214;48.012;7.862;2023-03-23T08:34:48;16.60;99.90
12303;DHT22;6214;48.012;7.862;2023-03-23T08:37:14;16.70;99.90
12303;DHT22;6214;48.012;7.862;2023-03-23T08:39:40;16.80;99.90
12303;DHT22;6214;48.012;7.862;2023-03-23T08:42:08;16.80;99.90
12303;DHT22;6214;48.012;7.862;2023-03-23T08:44:36;16.70;99.90
12303;DHT22;6214;48.012;7.862;2023-03-23T08:47:02;16.60;99.90
12303;DHT22;6214;48.012;7.862;2023-03-23T08:49:30;16.50;99.90
12303;DHT22;6214;48.012;7.862;2023-03-23T08:51:58;16.30;99.90
12303;DHT22;6214;48.012;7.862;2023-03-23T08:54:25;16.30;99.90
12303;DHT22;6214;48.012;7.862;2023-03-23T08:56:51;16.30;99.90
12303;DHT22;6214;48.012;7.862;2023-03-23T08:59:17;16.30;99.90
12303;DHT22;6214;48.012;7.862;2023-03-23T09:01:42;16.20;99.90
12303;DHT22;6214;48.012;7.862;2023-03-23T09:04:08;16.10;99.90
12303;DHT22;6214;48.012;7.862;2023-03-23T09:06:38;16.20;99.90
12303;DHT22;6214;48.012;7.862;2023-03-23T09:09:04;16.20;99.90
12303;DHT22;6214;48.012;7.862;2023-03-23T09:11:35;16.20;99.90
12303;DHT22;6214;48.012;7.862;2023-03-23T09:14:06;16.30;99.90
12303;DHT22;6214;48.012;7.862;2023-03-23T09:16:33;16.40;99.90
12303;DHT22;6214;48.012;7.862;2023-03-23T09:19:00;16.50;99.90
12303;DHT22;6214;48.012;7.862;2023-03-23T09:21:27;16.50;99.90
12303;DHT22;6214;48.012;7.862;2023-03-23T09:23:53;16.60;99.90
12303;DHT22;6214;48.012;7.862;2023-03-23T09:26:25;16.70;99.90
12303;DHT22;6214;48.012;7.862;2023-03-23T09:28:51;16.80;99.90
12303;DHT22;6214;48.012;7.862;2023-03-23T09:31:17;16.90;99.90
12303;DHT22;6214;48.012;7.862;2023-03-23T09:33:46;17.00;99.90
12303;DHT22;6214;48.012;7.862;2023-03-23T09:36:12;17.10;99.90
12303;DHT22;6214;48.012;7.862;2023-03-23T09:38:40;17.40;99.90
12303;DHT22;6214;48.012;7.862;2023-03-23T09:41:19;17.80;99.90
12303;DHT22;6214;48.012;7.862;2023-03-23T09:44:13;18.10;99.90
12303;DHT22;6214;48.012;7.862;2023-03-23T09:47:03;18.20;99.90
12303;DHT22;6214;48.012;7.862;2023-03-23T09:49:40;18.30;99.90
12303;DHT22;6214;48.012;7.862;2023-03-23T09:52:12;18.20;99.90
12303;DHT22;6214;48.012;7.862;2023-03-23T09:54:41;18.20;99.90
12303;DHT22;6214;48.012;7.862;2023-03-23T10:05:32;18.20;99.90
12303;DHT22;6214;48.012;7.862;2023-03-23T10:08:00;18.40;99.90
12303;DHT22;6214;48.012;7.862;2023-03-23T10:10:46;18.50;99.90
12303;DHT22;6214;48.012;7.862;2023-03-23T10:16:15;18.60;99.90
12303;DHT22;6214;48.012;7.862;2023-03-23T10:21:15;18.70;99.90
12303;DHT22;6214;48.012;7.862;2023-03-23T10:24:01;18.80;99.90
12303;DHT22;6214;48.012;7.862;2023-03-23T10:29:04;19.30;99.90
12303;DHT22;6214;48.012;7.862;2023-03-23T10:31:43;19.80;99.90
12303;DHT22;6214;48.012;7.862;2023-03-23T10:34:17;19.80;99.90
12303;DHT22;6214;48.012;7.862;2023-03-23T10:39:24;21.00;99.90
12303;DHT22;6214;48.012;7.862;2023-03-23T10:41:52;21.40;99.90
12303;DHT22;6214;48.012;7.862;2023-03-23T10:44:20;21.40;99.90
12303;DHT22;6214;48.012;7.862;2023-03-23T10:47:05;21.70;99.90
12303;DHT22;6214;48.012;7.862;2023-03-23T10:52:56;21.40;99.90
12303;DHT22;6214;48.012;7.862;2023-03-23T10:55:16;21.50;99.90
12303;DHT22;6214;48.012;7.862;2023-03-23T10:57:59;21.70;99.90
12303;DHT22;6214;48.012;7.862;2023-03-23T11:00:27;21.60;99.90
12303;DHT22;6214;48.012;7.862;2023-03-23T11:05:45;21.00;99.90
12303;DHT22;6214;48.012;7.862;2023-03-23T11:08:15;20.90;99.90
12303;DHT22;6214;48.012;7.862;2023-03-23T11:10:48;21.10;99.90
12303;DHT22;6214;48.012;7.862;2023-03-23T11:13:16;21.40;99.90
12303;DHT22;6214;48.012;7.862;2023-03-23T11:15:44;21.10;99.90
12303;DHT22;6214;48.012;7.862;2023-03-23T11:18:23;21.00;99.90
12303;DHT22;6214;48.012;7.862;2023-03-23T11:20:53;20.90;99.90
12303;DHT22;6214;48.012;7.862;2023-03-23T11:23:28;21.00;99.90
12303;DHT22;6214;48.012;7.862;2023-03-23T11:28:35;21.20;99.90
12303;DHT22;6214;48.012;7.862;2023-03-23T11:31:04;20.80;99.90
12303;DHT22;6214;48.012;7.862;2023-03-23T11:36:42;20.70;99.90
12303;DHT22;6214;48.012;7.862;2023-03-23T11:39:31;20.90;99.90
12303;DHT22;6214;48.012;7.862;2023-03-23T11:42:11;21.20;99.90
12303;DHT22;6214;48.012;7.862;2023-03-23T11:44:42;21.70;99.90
12303;DHT22;6214;48.012;7.862;2023-03-23T11:47:36;22.00;99.90
12303;DHT22;6214;48.012;7.862;2023-03-23T11:50:53;22.20;99.90
12303;DHT22;6214;48.012;7.862;2023-03-23T11:58:52;22.30;99.90
12303;DHT22;6214;48.012;7.862;2023-03-23T12:01:34;22.20;99.90
12303;DHT22;6214;48.012;7.862;2023-03-23T12:24:39;22.20;99.90
12303;DHT22;6214;48.012;7.862;2023-03-23T12:41:15;21.50;99.90
12303;DHT22;6214;48.012;7.862;2023-03-23T12:44:06;21.30;99.90
12303;DHT22;6214;48.012;7.862;2023-03-23T12:46:39;21.20;99.90
12303;DHT22;6214;48.012;7.862;2023-03-23T12:56:42;20.90;99.90
12303;DHT22;6214;48.012;7.862;2023-03-23T12:59:16;20.60;99.90
12303;DHT22;6214;48.012;7.862;2023-03-23T13:01:48;20.50;99.90
12303;DHT22;6214;48.012;7.862;2023-03-23T13:04:20;20.50;99.90
12303;DHT22;6214;48.012;7.862;2023-03-23T13:06:48;20.40;99.90
12303;DHT22;6214;48.012;7.862;2023-03-23T13:11:46;20.20;99.90
12303;DHT22;6214;48.012;7.862;2023-03-23T13:19:48;20.30;99.90
12303;DHT22;6214;48.012;7.862;2023-03-23T13:22:54;20.20;99.90
12303;DHT22;6214;48.012;7.862;2023-03-23T13:28:24;20.20;99.90
12303;DHT22;6214;48.012;7.862;2023-03-23T13:31:02;20.20;99.90
12303;DHT22;6214;48.012;7.862;2023-03-23T13:33:31;20.10;99.90
12303;DHT22;6214;48.012;7.862;2023-03-23T13:36:04;20.20;99.90
12303;DHT22;6214;48.012;7.862;2023-03-23T13:38:32;20.50;99.90
12303;DHT22;6214;48.012;7.862;2023-03-23T13:41:06;20.30;99.90
12303;DHT22;6214;48.012;7.862;2023-03-23T13:43:34;20.10;99.90
12303;DHT22;6214;48.012;7.862;2023-03-23T13:46:10;20.00;99.90
12303;DHT22;6214;48.012;7.862;2023-03-23T13:54:06;19.90;99.90
12303;DHT22;6214;48.012;7.862;2023-03-23T13:56:59;19.80;99.90
12303;DHT22;6214;48.012;7.862;2023-03-23T14:01:54;19.90;99.90
12303;DHT22;6214;48.012;7.862;2023-03-23T14:04:22;20.00;99.90
12303;DHT22;6214;48.012;7.862;2023-03-23T14:06:50;20.10;99.90
12303;DHT22;6214;48.012;7.862;2023-03-23T14:09:26;20.00;99.90
12303;DHT22;6214;48.012;7.862;2023-03-23T14:11:58;19.80;99.90
12303;DHT22;6214;48.012;7.862;2023-03-23T14:14:33;19.70;99.90
12303;DHT22;6214;48.012;7.862;2023-03-23T14:17:14;19.60;99.90
12303;DHT22;6214;48.012;7.862;2023-03-23T14:19:44;19.50;99.90
12303;DHT22;6214;48.012;7.862;2023-03-23T14:22:22;19.60;99.90
12303;DHT22;6214;48.012;7.862;2023-03-23T14:24:49;19.50;99.90
12303;DHT22;6214;48.012;7.862;2023-03-23T14:27:19;19.40;99.90
12303;DHT22;6214;48.012;7.862;2023-03-23T14:29:45;19.20;99.90
12303;DHT22;6214;48.012;7.862;2023-03-23T14:32:17;19.30;99.90
12303;DHT22;6214;48.012;7.862;2023-03-23T14:34:46;19.20;99.90
12303;DHT22;6214;48.012;7.862;2023-03-23T14:37:14;19.20;99.90
12303;DHT22;6214;48.012;7.862;2023-03-23T14:39:45;19.20;99.90
12303;DHT22;6214;48.012;7.862;2023-03-23T14:42:14;19.30;99.90
12303;DHT22;6214;48.012;7.862;2023-03-23T14:44:44;19.30;99.90
12303;DHT22;6214;48.012;7.862;2023-03-23T14:47:21;19.40;99.90
12303;DHT22;6214;48.012;7.862;2023-03-23T14:49:53;19.40;99.90
12303;DHT22;6214;48.012;7.862;2023-03-23T14:52:22;19.50;99.90
12303;DHT22;6214;48.012;7.862;2023-03-23T14:54:48;19.40;99.90
12303;DHT22;6214;48.012;7.862;2023-03-23T14:57:33;19.40;99.90
12303;DHT22;6214;48.012;7.862;2023-03-23T14:59:59;19.40;99.90
12303;DHT22;6214;48.012;7.862;2023-03-23T15:02:27;19.50;99.90
12303;DHT22;6214;48.012;7.862;2023-03-23T15:04:58;19.60;99.90
12303;DHT22;6214;48.012;7.862;2023-03-23T15:07:29;19.70;99.90
12303;DHT22;6214;48.012;7.862;2023-03-23T15:09:56;19.60;99.90
12303;DHT22;6214;48.012;7.862;2023-03-23T15:12:26;19.60;99.90
12303;DHT22;6214;48.012;7.862;2023-03-23T15:14:56;19.70;99.90
12303;DHT22;6214;48.012;7.862;2023-03-23T15:17:35;19.70;99.90
12303;DHT22;6214;48.012;7.862;2023-03-23T15:20:27;19.60;99.90
12303;DHT22;6214;48.012;7.862;2023-03-23T15:22:54;19.50;99.90
12303;DHT22;6214;48.012;7.862;2023-03-23T15:25:30;19.30;99.90
12303;DHT22;6214;48.012;7.862;2023-03-23T15:27:58;19.40;99.90
12303;DHT22;6214;48.012;7.862;2023-03-23T15:30:35;19.40;99.90
12303;DHT22;6214;48.012;7.862;2023-03-23T15:33:09;19.50;99.90
12303;DHT22;6214;48.012;7.862;2023-03-23T15:35:38;19.60;99.90
12303;DHT22;6214;48.012;7.862;2023-03-23T15:38:12;19.50;99.90
12303;DHT22;6214;48.012;7.862;2023-03-23T15:40:41;19.50;99.90
12303;DHT22;6214;48.012;7.862;2023-03-23T15:46:16;19.30;99.90
12303;DHT22;6214;48.012;7.862;2023-03-23T15:48:51;19.10;99.90
12303;DHT22;6214;48.012;7.862;2023-03-23T15:51:20;19.00;99.90
12303;DHT22;6214;48.012;7.862;2023-03-23T15:53:48;18.90;99.90
12303;DHT22;6214;48.012;7.862;2023-03-23T15:56:15;18.70;99.90
12303;DHT22;6214;48.012;7.862;2023-03-23T15:58:42;18.90;99.90
12303;DHT22;6214;48.012;7.862;2023-03-23T16:01:19;18.90;99.90
12303;DHT22;6214;48.012;7.862;2023-03-23T16:03:51;18.80;99.90
12303;DHT22;6214;48.012;7.862;2023-03-23T16:06:20;18.90;99.90
12303;DHT22;6214;48.012;7.862;2023-03-23T16:08:52;18.80;99.90
12303;DHT22;6214;48.012;7.862;2023-03-23T16:11:20;18.60;99.90
12303;DHT22;6214;48.012;7.862;2023-03-23T16:13:49;18.50;99.90
12303;DHT22;6214;48.012;7.862;2023-03-23T16:16:18;18.50;99.90
12303;DHT22;6214;48.012;7.862;2023-03-23T16:18:46;18.50;99.90
12303;DHT22;6214;48.012;7.862;2023-03-23T16:21:13;18.60;99.90
12303;DHT22;6214;48.012;7.862;2023-03-23T16:23:40;18.70;99.90
12303;DHT22;6214;48.012;7.862;2023-03-23T16:26:11;18.70;99.90
12303;DHT22;6214;48.012;7.862;2023-03-23T16:28:38;18.70;99.90
12303;DHT22;6214;48.012;7.862;2023-03-23T16:31:06;18.60;99.90
12303;DHT22;6214;48.012;7.862;2023-03-23T16:33:33;18.60;99.90
12303;DHT22;6214;48.012;7.862;2023-03-23T16:36:00;18.60;99.90
12303;DHT22;6214;48.012;7.862;2023-03-23T16:38:27;18.50;99.90
12303;DHT22;6214;48.012;7.862;2023-03-23T16:40:54;18.60;99.90
12303;DHT22;6214;48.012;7.862;2023-03-23T16:43:21;18.40;99.90
12303;DHT22;6214;48.012;7.862;2023-03-23T16:45:48;18.30;99.90
12303;DHT22;6214;48.012;7.862;2023-03-23T16:48:16;18.40;99.90
12303;DHT22;6214;48.012;7.862;2023-03-23T16:50:43;18.40;99.90
12303;DHT22;6214;48.012;7.862;2023-03-23T16:53:10;18.40;99.90
12303;DHT22;6214;48.012;7.862;2023-03-23T16:55:38;18.40;99.90
12303;DHT22;6214;48.012;7.862;2023-03-23T16:58:06;18.40;99.90
12303;DHT22;6214;48.012;7.862;2023-03-23T17:00:36;18.50;99.90
12303;DHT22;6214;48.012;7.862;2023-03-23T17:03:04;18.60;99.90
12303;DHT22;6214;48.012;7.862;2023-03-23T17:05:32;18.70;99.90
12303;DHT22;6214;48.012;7.862;2023-03-23T17:08:00;18.60;99.90
12303;DHT22;6214;48.012;7.862;2023-03-23T17:10:28;18.60;99.90
12303;DHT22;6214;48.012;7.862;2023-03-23T17:12:55;18.70;99.90
12303;DHT22;6214;48.012;7.862;2023-03-23T17:15:23;18.60;99.90
12303;DHT22;6214;48.012;7.862;2023-03-23T17:17:52;18.70;99.90
12303;DHT22;6214;48.012;7.862;2023-03-23T17:20:20;18.60;99.90
12303;DHT22;6214;48.012;7.862;2023-03-23T17:22:47;18.70;99.90
12303;DHT22;6214;48.012;7.862;2023-03-23T17:25:14;18.70;99.90
12303;DHT22;6214;48.012;7.862;2023-03-23T17:27:41;18.70;99.90
12303;DHT22;6214;48.012;7.862;2023-03-23T17:30:09;18.70;99.90
12303;DHT22;6214;48.012;7.862;2023-03-23T17:32:37;18.70;99.90
12303;DHT22;6214;48.012;7.862;2023-03-23T17:35:05;18.70;99.90
12303;DHT22;6214;48.012;7.862;2023-03-23T17:37:33;18.70;99.90
12303;DHT22;6214;48.012;7.862;2023-03-23T17:40:00;18.70;99.90
12303;DHT22;6214;48.012;7.862;2023-03-23T17:42:28;18.60;99.90
12303;DHT22;6214;48.012;7.862;2023-03-23T17:44:55;18.60;99.90
12303;DHT22;6214;48.012;7.862;2023-03-23T17:47:22;18.70;99.90
12303;DHT22;6214;48.012;7.862;2023-03-23T17:49:49;18.80;99.90
12303;DHT22;6214;48.012;7.862;2023-03-23T17:52:17;18.80;99.90
12303;DHT22;6214;48.012;7.862;2023-03-23T17:54:44;18.70;99.90